Time;durP1;ratioP1;P1;durP2;ratioP2;P2;SDS_P1;SDS_P2;PMS_P1;PMS_P2;Temp;Humidity;BMP_temperature;BMP_pressure;BME280_temperature;BME280_humidity;BME280_pressure;Samples;Min_cycle;Max_cycle;Signal;HPM_P1;HPM_P2
2024/03/04 17:39:31;;;;;;;20.00;10.30;;;8.20;96.30;;;;;;5053668;27;21080;-60
2024/03/04 17:41:57;;;;;;;18.43;11.30;;;8.10;96.80;;;;;;5039443;28;20505;-59
2024/03/04 17:44:23;;;;;;;12.43;8.50;;;8.10;98.70;;;;;;5038427;28;20522;-60
2024/03/04 17:46:49;;;;;;;11.80;7.50;;;8.00;99.90;;;;;;5035751;28;20174;-60
2024/03/04 17:49:14;;;;;;;11.77;7.97;;;8.00;99.90;;;;;;5034115;28;20253;-61
2024/03/04 17:51:41;;;;;;;11.93;7.83;;;8.00;99.90;;;;;;5034115;28;20429;-60
2024/03/04 17:54:07;;;;;;;16.17;8.37;;;8.00;99.90;;;;;;5036026;28;20230;-60
2024/03/04 17:56:33;;;;;;;12.10;8.60;;;8.00;99.90;;;;;;5033841;28;20438;-60
2024/03/04 17:59:00;;;;;;;31.77;20.73;;;8.00;99.90;;;;;;5024545;28;20455;-57
2024/03/04 18:01:25;;;;;;;24.07;14.03;;;8.00;99.90;;;;;;5032681;28;20485;-54
2024/03/04 18:03:51;;;;;;;15.47;9.80;;;8.00;99.90;;;;;;5037735;28;21006;-56
2024/03/04 18:06:16;;;;;;;17.27;10.33;;;8.00;99.90;;;;;;5037773;28;20233;-60
2024/03/04 18:08:42;;;;;;;11.97;8.17;;;8.00;99.90;;;;;;5041047;28;20174;-56
2024/03/04 18:11:08;;;;;;;13.07;8.67;;;8.00;99.90;;;;;;5042348;28;20175;-61
2024/03/04 18:13:34;;;;;;;15.27;9.03;;;8.00;99.90;;;;;;5033646;28;20245;-61
2024/03/04 18:15:59;;;;;;;15.97;9.03;;;8.10;99.90;;;;;;5031440;28;20661;-61
2024/03/04 18:18:25;;;;;;;13.30;8.60;;;8.10;99.90;;;;;;5033999;28;20457;-59
2024/03/04 18:20:51;;;;;;;16.37;10.00;;;8.00;99.90;;;;;;5042338;28;20754;-60
2024/03/04 18:23:18;;;;;;;15.30;9.47;;;8.00;99.90;;;;;;5037580;28;20175;-60
2024/03/04 18:25:47;;;;;;;11.60;7.70;;;8.00;99.90;;;;;;5041242;28;20183;-62
2024/03/04 18:28:18;;;;;;;12.23;7.43;;;8.10;99.90;;;;;;5038227;28;20424;-59
2024/03/04 18:30:44;;;;;;;14.07;7.90;;;8.10;99.90;;;;;;5041484;28;20438;-61
2024/03/04 18:33:09;;;;;;;12.57;7.70;;;8.00;99.90;;;;;;5039826;28;20421;-59
2024/03/04 18:35:38;;;;;;;11.47;7.33;;;8.00;99.90;;;;;;5045078;28;20218;-59
2024/03/04 18:38:04;;;;;;;11.43;7.20;;;8.10;99.90;;;;;;5036384;28;20211;-59
2024/03/04 18:40:31;;;;;;;11.70;7.00;;;8.00;99.90;;;;;;5038033;28;20437;-61
2024/03/04 18:42:58;;;;;;;12.23;6.60;;;8.00;99.70;;;;;;5042071;28;21094;-61
2024/03/04 18:45:23;;;;;;;12.20;7.07;;;8.00;99.70;;;;;;5043091;28;21021;-61
2024/03/04 18:47:49;;;;;;;10.17;7.20;;;8.00;99.90;;;;;;5040343;28;20434;-59
2024/03/04 18:50:17;;;;;;;14.30;9.80;;;8.00;99.90;;;;;;5030426;28;20229;-60
2024/03/04 18:52:42;;;;;;;20.20;11.63;;;8.00;99.90;;;;;;5020299;28;20176;-61
2024/03/04 18:55:08;;;;;;;19.70;11.47;;;8.00;99.90;;;;;;5027611;28;20439;-60
2024/03/04 18:57:34;;;;;;;14.17;9.83;;;8.00;99.90;;;;;;5020914;28;20208;-61
2024/03/04 18:59:59;;;;;;;18.40;11.17;;;8.00;99.90;;;;;;5025318;28;20214;-61
2024/03/04 19:02:27;;;;;;;13.33;8.87;;;8.00;99.90;;;;;;5024263;28;20184;-60
2024/03/04 19:04:55;;;;;;;14.47;7.60;;;7.90;99.90;;;;;;5028386;28;20207;-61
2024/03/04 19:07:21;;;;;;;17.50;8.40;;;7.90;99.90;;;;;;5022260;28;20529;-61
2024/03/04 19:09:47;;;;;;;10.47;7.03;;;7.90;99.90;;;;;;5026709;28;20534;-62
2024/03/04 19:12:13;;;;;;;13.23;8.53;;;7.90;99.90;;;;;;5026028;28;20179;-61
2024/03/04 19:14:38;;;;;;;11.37;8.13;;;7.90;99.90;;;;;;5023928;28;20447;-60
2024/03/04 19:17:04;;;;;;;13.43;8.80;;;7.90;99.90;;;;;;5023523;28;20180;-59
2024/03/04 19:19:30;;;;;;;12.00;7.40;;;7.90;99.90;;;;;;5026765;28;20231;-60
2024/03/04 19:21:55;;;;;;;11.57;7.83;;;7.90;99.90;;;;;;5022289;28;20172;-61
2024/03/04 19:24:21;;;;;;;11.10;7.47;;;7.90;99.90;;;;;;5021809;28;20595;-62
2024/03/04 19:26:47;;;;;;;19.90;11.13;;;7.90;99.90;;;;;;5025780;28;20184;-60
2024/03/04 19:29:13;;;;;;;14.73;8.87;;;7.90;99.90;;;;;;5029278;28;20183;-60
2024/03/04 19:31:38;;;;;;;15.40;10.57;;;7.90;99.90;;;;;;5024340;28;21047;-60
2024/03/04 19:34:06;;;;;;;13.20;8.93;;;7.90;99.90;;;;;;5022427;28;20204;-60
2024/03/04 19:36:33;;;;;;;17.20;10.27;;;7.90;99.90;;;;;;5019506;28;20389;-61
2024/03/04 19:38:59;;;;;;;13.20;9.00;;;7.90;99.90;;;;;;5018452;28;20528;-59
2024/03/04 19:41:26;;;;;;;13.50;9.17;;;7.90;99.90;;;;;;5025139;28;20461;-58
2024/03/04 19:43:52;;;;;;;15.23;10.13;;;7.90;99.90;;;;;;5012856;28;21037;-59
2024/03/04 19:46:20;;;;;;;17.07;11.83;;;7.90;99.90;;;;;;5032068;28;20425;-60
2024/03/04 19:48:47;;;;;;;14.00;10.60;;;7.90;99.90;;;;;;5018699;28;20439;-59
2024/03/04 19:51:13;;;;;;;14.33;7.90;;;7.80;99.90;;;;;;5022033;28;20485;-61
2024/03/04 19:53:44;;;;;;;11.50;8.60;;;7.90;99.70;;;;;;5026118;28;20477;-59
2024/03/04 19:56:10;;;;;;;15.97;9.87;;;7.80;99.10;;;;;;5024520;28;20426;-60
2024/03/04 19:58:40;;;;;;;12.53;9.00;;;7.90;99.50;;;;;;5019478;28;20455;-63
2024/03/04 20:01:10;;;;;;;16.50;9.20;;;7.90;99.90;;;;;;5020641;28;20427;-60
2024/03/04 20:03:40;;;;;;;13.10;9.83;;;7.90;99.80;;;;;;5024418;28;20862;-59
2024/03/04 20:06:06;;;;;;;16.03;9.50;;;7.90;99.50;;;;;;5019689;28;20418;-60
2024/03/04 20:08:34;;;;;;;20.30;8.80;;;7.90;99.90;;;;;;5012647;28;20430;-61
2024/03/04 20:11:06;;;;;;;13.13;8.10;;;7.90;99.90;;;;;;5012677;28;20229;-60
2024/03/04 20:13:32;;;;;;;13.90;7.77;;;7.90;99.90;;;;;;5023745;28;20489;-60
2024/03/04 20:15:59;;;;;;;14.03;8.10;;;7.90;99.90;;;;;;5015690;28;20769;-60
2024/03/04 20:18:25;;;;;;;12.07;9.03;;;7.90;99.90;;;;;;5033833;28;20528;-60
2024/03/04 20:20:51;;;;;;;41.13;19.57;;;7.80;99.90;;;;;;5025221;28;21184;-61
2024/03/04 20:23:16;;;;;;;38.43;18.90;;;7.80;99.90;;;;;;5028079;28;20430;-60
2024/03/04 20:25:44;;;;;;;34.20;16.60;;;7.80;99.90;;;;;;5025612;28;20663;-60
2024/03/04 20:28:10;;;;;;;29.43;15.30;;;7.80;99.90;;;;;;5017978;28;20210;-60
2024/03/04 20:30:44;;;;;;;18.80;9.90;;;7.80;99.90;;;;;;5019297;28;20437;-60
2024/03/04 20:33:12;;;;;;;18.17;9.30;;;7.80;99.90;;;;;;5021572;28;20860;-60
2024/03/04 20:35:40;;;;;;;13.60;8.10;;;7.80;99.90;;;;;;5019328;28;20937;-61
2024/03/04 20:38:06;;;;;;;10.90;6.60;;;7.80;99.90;;;;;;5022346;28;20501;-61
2024/03/04 20:40:33;;;;;;;13.30;8.30;;;7.80;99.90;;;;;;5013941;28;20430;-60
2024/03/04 20:43:00;;;;;;;14.10;7.40;;;7.80;99.90;;;;;;5017000;28;20423;-61
2024/03/04 20:45:26;;;;;;;17.23;8.00;;;7.80;99.90;;;;;;5018905;28;20465;-60
2024/03/04 20:47:52;;;;;;;11.37;7.73;;;7.70;99.90;;;;;;5020560;28;20851;-60
2024/03/04 20:50:18;;;;;;;11.40;7.13;;;7.80;99.90;;;;;;5023153;28;20513;-60
2024/03/04 20:52:44;;;;;;;11.77;7.83;;;7.80;99.90;;;;;;5020707;28;20521;-60
2024/03/04 20:55:10;;;;;;;10.90;7.20;;;7.80;99.90;;;;;;5022263;28;20812;-60
2024/03/04 20:57:37;;;;;;;11.00;7.67;;;7.70;99.90;;;;;;5021869;28;20235;-60
2024/03/04 21:00:12;;;;;;;12.13;7.07;;;7.70;99.90;;;;;;5025882;28;20414;-60
2024/03/04 21:02:38;;;;;;;14.17;7.13;;;7.70;99.90;;;;;;5021780;28;20533;-61
2024/03/04 21:05:04;;;;;;;10.80;6.90;;;7.70;99.90;;;;;;5019633;28;21252;-60
2024/03/04 21:07:30;;;;;;;16.47;7.27;;;7.70;99.90;;;;;;5017873;28;20418;-62
2024/03/04 21:09:56;;;;;;;11.53;7.83;;;7.70;99.90;;;;;;5019916;28;21079;-59
2024/03/04 21:12:21;;;;;;;15.90;9.57;;;7.70;99.90;;;;;;5022581;28;20770;-60
2024/03/04 21:14:47;;;;;;;14.50;9.47;;;7.70;99.90;;;;;;5020250;28;20208;-60
2024/03/04 21:17:12;;;;;;;13.97;9.77;;;7.70;99.90;;;;;;5019275;28;20184;-61
2024/03/04 21:19:38;;;;;;;16.13;9.83;;;7.70;99.90;;;;;;5020603;28;20699;-60
2024/03/04 21:22:03;;;;;;;12.67;8.40;;;7.60;99.90;;;;;;5020090;28;20189;-60
2024/03/04 21:24:29;;;;;;;12.53;6.93;;;7.60;99.90;;;;;;5021195;28;20193;-61
2024/03/04 21:26:54;;;;;;;12.37;8.40;;;7.60;99.90;;;;;;5024526;28;20184;-61
2024/03/04 21:29:20;;;;;;;14.37;8.73;;;7.60;99.90;;;;;;5017491;28;20184;-60
2024/03/04 21:31:46;;;;;;;10.87;7.77;;;7.60;99.90;;;;;;5022678;28;20249;-60
2024/03/04 21:34:11;;;;;;;17.67;7.33;;;7.60;99.90;;;;;;5018989;28;20608;-61
2024/03/04 21:36:37;;;;;;;10.87;7.47;;;7.60;99.90;;;;;;5023819;28;20188;-61
2024/03/04 21:39:06;;;;;;;12.80;7.53;;;7.60;99.90;;;;;;5019228;28;20564;-60
2024/03/04 21:41:32;;;;;;;11.53;7.70;;;7.60;99.90;;;;;;5025132;28;20175;-60
2024/03/04 21:43:57;;;;;;;11.20;7.53;;;7.60;99.90;;;;;;5025767;28;20430;-60
2024/03/04 21:46:23;;;;;;;10.00;6.90;;;7.60;99.90;;;;;;5018708;28;20427;-60
2024/03/04 21:48:48;;;;;;;11.27;7.57;;;7.60;99.90;;;;;;5021309;28;20172;-60
2024/03/04 21:51:14;;;;;;;10.90;7.43;;;7.60;99.90;;;;;;5023197;28;20184;-60
2024/03/04 21:53:40;;;;;;;13.27;8.23;;;7.60;99.90;;;;;;5026408;28;20227;-60
2024/03/04 21:56:08;;;;;;;13.00;8.73;;;7.60;99.90;;;;;;5022793;28;20175;-61
2024/03/04 21:58:35;;;;;;;7.87;6.60;;;7.60;99.90;;;;;;5021107;28;20283;-60
2024/03/04 22:01:01;;;;;;;9.43;6.83;;;7.60;99.90;;;;;;5023050;28;20517;-60
2024/03/04 22:03:26;;;;;;;9.93;7.10;;;7.60;99.90;;;;;;5023631;28;20180;-60
2024/03/04 22:05:53;;;;;;;12.43;6.87;;;7.60;99.90;;;;;;5026240;28;20176;-61
2024/03/04 22:08:19;;;;;;;11.40;7.30;;;7.60;99.90;;;;;;5025062;28;20585;-60
2024/03/04 22:10:45;;;;;;;16.20;7.80;;;7.60;99.90;;;;;;5020750;28;20472;-60
2024/03/04 22:13:10;;;;;;;11.90;7.83;;;7.60;99.90;;;;;;5022119;28;20210;-60
2024/03/04 22:15:37;;;;;;;17.70;8.77;;;7.60;99.90;;;;;;5024215;28;20564;-60
2024/03/04 22:18:03;;;;;;;17.63;9.40;;;7.60;99.90;;;;;;5020931;28;20196;-59
2024/03/04 22:20:29;;;;;;;14.87;9.93;;;7.60;99.90;;;;;;5024339;28;20852;-59
2024/03/04 22:22:56;;;;;;;15.27;9.77;;;7.60;99.90;;;;;;5023466;28;20426;-60
2024/03/04 22:25:22;;;;;;;16.90;10.07;;;7.60;99.90;;;;;;5029642;28;20203;-60
2024/03/04 22:27:47;;;;;;;21.33;11.50;;;7.60;99.90;;;;;;5027150;28;20453;-60
2024/03/04 22:30:13;;;;;;;22.57;12.80;;;7.60;99.90;;;;;;5024873;28;20176;-59
2024/03/04 22:32:39;;;;;;;23.17;13.70;;;7.60;99.90;;;;;;5022662;28;20831;-60
2024/03/04 22:35:06;;;;;;;31.60;14.57;;;7.60;99.90;;;;;;5020567;28;20462;-60
2024/03/04 22:37:32;;;;;;;29.37;15.20;;;7.60;99.90;;;;;;5029116;28;20184;-60
2024/03/04 22:39:58;;;;;;;21.10;12.73;;;7.50;99.90;;;;;;5030840;28;20784;-60
2024/03/04 22:42:24;;;;;;;20.67;12.10;;;7.60;99.90;;;;;;5027599;28;20184;-61
2024/03/04 22:44:49;;;;;;;24.00;12.60;;;7.60;99.90;;;;;;5028459;28;20226;-60
2024/03/04 22:47:15;;;;;;;20.93;12.77;;;7.60;99.90;;;;;;5029653;28;20411;-60
2024/03/04 22:49:40;;;;;;;22.93;12.13;;;7.60;99.90;;;;;;5025776;28;20195;-59
2024/03/04 22:52:06;;;;;;;22.07;12.33;;;7.50;99.90;;;;;;5028733;28;20282;-59
2024/03/04 22:54:31;;;;;;;19.33;10.97;;;7.50;99.90;;;;;;5025860;28;20200;-60
2024/03/04 22:56:57;;;;;;;22.60;12.90;;;7.50;99.90;;;;;;5024566;28;20176;-60
2024/03/04 22:59:23;;;;;;;22.37;12.43;;;7.50;99.90;;;;;;5029168;28;20663;-59
2024/03/04 23:01:50;;;;;;;20.83;12.50;;;7.50;99.90;;;;;;5027046;28;20635;-59
2024/03/04 23:04:16;;;;;;;21.57;12.67;;;7.50;99.90;;;;;;5026483;28;20196;-60
2024/03/04 23:06:41;;;;;;;22.20;13.20;;;7.50;99.90;;;;;;5022431;28;20488;-61
2024/03/04 23:09:07;;;;;;;17.63;11.20;;;7.50;99.90;;;;;;5023172;28;20221;-59
2024/03/04 23:11:33;;;;;;;21.07;11.47;;;7.50;99.90;;;;;;5021648;28;20176;-61
2024/03/04 23:13:59;;;;;;;17.30;10.50;;;7.40;99.90;;;;;;5029535;28;20449;-60
2024/03/04 23:16:25;;;;;;;17.20;10.23;;;7.40;99.90;;;;;;5020316;28;20936;-60
2024/03/04 23:18:51;;;;;;;17.87;11.10;;;7.40;99.90;;;;;;5018633;28;20207;-60
2024/03/04 23:21:17;;;;;;;18.70;10.80;;;7.40;99.90;;;;;;5020717;28;20222;-60
2024/03/04 23:23:43;;;;;;;24.33;13.30;;;7.30;99.90;;;;;;5028053;28;20454;-59
2024/03/04 23:26:09;;;;;;;25.10;12.67;;;7.30;99.90;;;;;;5024356;28;20701;-60
2024/03/04 23:28:37;;;;;;;21.33;12.60;;;7.30;99.90;;;;;;5023665;28;20180;-60
2024/03/04 23:31:03;;;;;;;22.10;12.40;;;7.30;99.90;;;;;;5030167;28;20496;-59
2024/03/04 23:33:29;;;;;;;21.93;11.90;;;7.30;99.90;;;;;;5022110;28;20480;-60
2024/03/04 23:35:55;;;;;;;19.50;11.00;;;7.20;99.90;;;;;;5023662;28;20950;-60
2024/03/04 23:38:21;;;;;;;16.60;10.57;;;7.20;99.90;;;;;;5022774;28;20475;-62
2024/03/04 23:40:46;;;;;;;17.50;11.00;;;7.20;99.90;;;;;;5026704;28;20172;-60
2024/03/04 23:43:13;;;;;;;18.43;10.23;;;7.20;99.90;;;;;;5020356;28;20184;-60
2024/03/04 23:45:39;;;;;;;16.43;9.87;;;7.20;99.90;;;;;;5022730;28;20187;-61
2024/03/04 23:48:05;;;;;;;18.47;10.03;;;7.20;99.90;;;;;;5016198;28;20947;-61
2024/03/04 23:50:31;;;;;;;16.40;10.07;;;7.20;99.90;;;;;;5019128;28;20450;-60
2024/03/04 23:52:57;;;;;;;21.83;10.80;;;7.10;99.90;;;;;;5022376;28;20430;-60
2024/03/04 23:55:22;;;;;;;21.90;10.50;;;7.10;99.90;;;;;;5025771;28;20211;-61
2024/03/04 23:57:48;;;;;;;17.43;10.17;;;7.10;99.90;;;;;;5023368;28;20832;-58
